Huron, California
Current Conditions -  °F | °C
As of 9:56 AM on Sunday 21 Dec 2014 (Local Time) from KNLC Reporting Station
Overcast Overcast  
Wind Chill: 50°   Ceiling: 200
Heat Index: 50°   Visibility: NA
Dew Point: 50°   Wind: 3mph
Humidity: 100%   Direction: 140°SE
Pressure: 30.33"   Gusts: NA
Location:  36.2°N, 120.1°W
Report Text: KNLC 211756Z AUTO 14003KT OVC002 10/10 A3033 RMK AO2 SLP272 T01000100 10100 20072 53010 RVRNO $
Loading
Personal Weather Stations






























Interactive Weather Map New forecast layout! Learn more

10-Day Weather Forecast

Advertisements
Track Severe Weather on mobile